Etusivu
METAR-TAF:

METAR-TAF

Lentoasemat :

Palma, Espanja

Palma de Mallorcan lentoasema

Leveyspiiri: 39-33N, Pituuspiiri: 002-44E, korkeus merenpinnasta: 4 m

Tämänhetkinen sää

Tämä raportti tehtiin 21 minuuttia sitten, kello 00.30 UTC
tyyntä
Lämpötila 9°C
Kosteus 93%
Ilmanpaine 1026 hPa
Näkyvyys 10 km tai enemmän
Muutamia pilviä 500 ft:n korkeudessa

METAR: LEPA 300030Z 00000KT 9999 FEW005 09/08 Q1026 TEMPO 3000 BR

Aika: 02:51 (00:51 UTC)

Sääennuste

Tämä raportti tehtiin 1 tunti ja 51 minuuttia sitten, kello 23.00 UTC
Ennuste voimassa 30. päivästä klo 00 UTC - 30. päivään klo 24 UTC
Tuuli 4 kn eri suunnista
Näkyvyys 10 km tai enemmän
Muutamia pilviä 1400 ft:n korkeudessa
Tulossa
30. päivästä klo 08 UTC - 30. päivään klo 10 UTC
Tuuli 10 kn lounaasta
Tulossa
30. päivästä klo 18 UTC - 30. päivään klo 21 UTC
Tuuli 5 kn pohjoisesta/koillisesta

TAF: LEPA 292300Z 3000/3024 VRB04KT 9999 FEW014 TX21/3013Z TN07/3006Z BECMG 3008/3010 22010KT BECMG 3018/3021 03005KT

Säähavainnot ja -ennusteet yli 4000 lentoasemalta (METAR- ja TAF-raportit).

Käytössä olevat sääasemat on merkitty karttaan keltaisilla ja punaisilla pisteillä.

Aseta hiiri pisteen päälle nähdäksesi sääaseman nimen.

Klikkaa sitten nähdäksesi säähavainnot ja -ennusteet.

Kartan vaihtaminen: klikkaa mustalla rastilla varustettuja vihreitä pisteitä, niin voit zoomata sisään; viivalla varustettua vihreää pistettä, niin voit zoomata ulos tai vihreitä nuolia, niin pääset viereisille kartoille.


METAR-TAF: